Time;durP1;ratioP1;P1;durP2;ratioP2;P2;SDS_P1;SDS_P2;PMS_P1;PMS_P2;Temp;Humidity;BMP_temperature;BMP_pressure;BME280_temperature;BME280_humidity;BME280_pressure;Samples;Min_cycle;Max_cycle;Signal;HPM_P1;HPM_P2
2022/03/03 00:01:20;;;;;;;21.70;16.40;;;-0.30;1.00;;;;;;5075193;28;20513;-59
2022/03/03 00:03:57;;;;;;;30.17;20.40;;;-0.30;1.00;;;;;;5077326;28;20464;-57
2022/03/03 00:06:26;;;;;;;21.93;16.23;;;-0.40;1.00;;;;;;5065851;28;20467;-58
2022/03/03 00:08:53;;;;;;;20.60;15.40;;;-0.40;1.00;;;;;;5060232;28;20465;-58
2022/03/03 00:11:35;;;;;;;;;;;;;;;;;;;;;
2022/03/03 00:14:05;;;;;;;20.47;15.57;;;-0.50;1.00;;;;;;5060988;28;20651;-58
2022/03/03 00:16:32;;;;;;;22.40;14.67;;;-0.50;1.00;;;;;;5073979;28;20457;-58
2022/03/03 00:19:01;;;;;;;21.10;14.53;;;-0.50;1.00;;;;;;5032623;28;20467;-57
2022/03/03 00:21:31;;;;;;;25.50;16.77;;;-0.50;1.00;;;;;;5046887;28;20472;-57
2022/03/03 00:24:01;;;;;;;32.20;20.13;;;-0.60;1.00;;;;;;5037341;28;20473;-58
2022/03/03 00:26:30;;;;;;;27.10;17.27;;;-0.60;1.00;;;;;;5038130;28;20537;-59
2022/03/03 00:29:04;;;;;;;28.07;18.90;;;-0.60;1.00;;;;;;5018546;28;20471;-56
2022/03/03 00:31:34;;;;;;;26.73;18.40;;;-0.50;1.00;;;;;;5019244;28;20463;-52
2022/03/03 00:34:03;;;;;;;27.43;19.67;;;-0.60;1.00;;;;;;5036463;28;20472;-54
2022/03/03 00:36:39;;;;;;;26.80;18.47;;;-0.60;1.00;;;;;;5038139;28;20523;-59
2022/03/03 00:39:09;;;;;;;25.70;17.60;;;-0.60;1.00;;;;;;5037331;28;20740;-55
2022/03/03 00:41:37;;;;;;;22.37;16.37;;;-0.60;1.00;;;;;;5038548;28;20521;-57
2022/03/03 00:44:14;;;;;;;23.67;16.10;;;-0.50;1.00;;;;;;5038204;28;20530;-57
2022/03/03 00:46:44;;;;;;;21.47;15.27;;;-0.60;1.00;;;;;;5037969;28;20569;-58
2022/03/03 00:49:15;;;;;;;23.53;15.47;;;-0.70;1.00;;;;;;5037707;28;20901;-59
2022/03/03 00:51:44;;;;;;;24.00;16.27;;;-0.70;1.00;;;;;;5032018;28;20550;-56
2022/03/03 00:54:14;;;;;;;21.90;15.37;;;-0.80;1.00;;;;;;5038066;28;20453;-52
2022/03/03 00:56:41;;;;;;;26.87;17.93;;;-0.80;1.00;;;;;;5038093;28;20458;-52
2022/03/03 00:59:11;;;;;;;21.30;15.97;;;-0.80;1.00;;;;;;5037290;28;20989;-58
2022/03/03 01:01:38;;;;;;;22.70;16.57;;;-0.80;1.00;;;;;;5038535;28;20938;-56
2022/03/03 01:04:05;;;;;;;23.43;16.70;;;-0.80;1.00;;;;;;5037811;28;20463;-59
2022/03/03 01:06:38;;;;;;;26.10;17.17;;;-0.80;1.00;;;;;;5037619;28;20460;-56
2022/03/03 01:09:08;;;;;;;22.73;17.93;;;-0.80;1.00;;;;;;5035913;28;20455;-59
2022/03/03 01:11:35;;;;;;;23.30;17.30;;;-0.90;1.00;;;;;;5038056;28;20542;-54
2022/03/03 01:14:05;;;;;;;22.53;15.80;;;-0.90;1.00;;;;;;5037767;28;20459;-55
2022/03/03 01:16:35;;;;;;;26.77;17.37;;;-0.80;1.00;;;;;;5037362;28;20771;-56
2022/03/03 01:19:05;;;;;;;21.70;16.60;;;-0.90;1.00;;;;;;5059458;28;20978;-56
2022/03/03 01:21:34;;;;;;;22.97;15.47;;;-1.00;1.00;;;;;;5064104;28;20559;-59
2022/03/03 01:24:01;;;;;;;20.73;15.93;;;-0.90;1.00;;;;;;5077729;28;20462;-56
2022/03/03 01:26:29;;;;;;;20.60;15.07;;;-1.00;1.00;;;;;;5077268;28;20495;-58
2022/03/03 01:28:56;;;;;;;21.17;14.50;;;-1.00;1.00;;;;;;5076980;28;20515;-59
2022/03/03 01:31:25;;;;;;;23.03;15.50;;;-0.90;1.00;;;;;;5076800;28;20466;-59
2022/03/03 01:33:52;;;;;;;19.00;14.73;;;-1.00;1.00;;;;;;5077321;28;20845;-59
2022/03/03 01:36:19;;;;;;;20.53;14.97;;;-1.00;1.00;;;;;;5077229;28;20461;-57
2022/03/03 01:38:53;;;;;;;20.27;13.77;;;-1.00;1.00;;;;;;5077427;28;20489;-59
2022/03/03 01:41:24;;;;;;;18.10;13.17;;;-1.10;1.00;;;;;;5076866;28;20473;-55
2022/03/03 01:43:54;;;;;;;20.60;13.63;;;-1.10;1.00;;;;;;5077922;28;20560;-61
2022/03/03 01:46:21;;;;;;;18.60;13.90;;;-1.10;1.00;;;;;;5076514;28;20490;-59
2022/03/03 01:48:50;;;;;;;19.10;13.43;;;-1.10;1.00;;;;;;5077217;28;20882;-53
2022/03/03 01:51:23;;;;;;;18.83;14.60;;;-1.20;1.00;;;;;;5076808;28;20786;-58
2022/03/03 01:53:54;;;;;;;17.03;14.23;;;-1.20;1.00;;;;;;5077280;28;20469;-52
2022/03/03 01:56:29;;;;;;;19.20;14.63;;;-1.30;1.00;;;;;;5064492;28;20519;-59
2022/03/03 01:58:59;;;;;;;17.90;14.30;;;-1.30;1.00;;;;;;5056831;28;20557;-58
2022/03/03 02:01:26;;;;;;;21.47;13.50;;;-1.30;1.00;;;;;;5063664;28;20519;-58
2022/03/03 02:03:57;;;;;;;19.17;13.60;;;-1.30;1.00;;;;;;5077032;28;20466;-57
2022/03/03 02:06:29;;;;;;;22.23;14.93;;;-1.40;1.00;;;;;;5076539;28;20495;-57
2022/03/03 02:09:01;;;;;;;17.57;13.53;;;-1.50;1.00;;;;;;5076911;28;20471;-56
2022/03/03 02:11:32;;;;;;;18.20;14.00;;;-1.50;1.00;;;;;;5076868;28;20718;-57
2022/03/03 02:14:04;;;;;;;18.00;14.30;;;-1.50;1.00;;;;;;5077343;28;20500;-52
2022/03/03 02:16:59;;;;;;;18.30;13.40;;;-1.50;1.00;;;;;;5076361;28;20460;-57
2022/03/03 02:19:28;;;;;;;19.80;14.70;;;-1.50;1.00;;;;;;5022258;28;20468;-53
2022/03/03 02:21:57;;;;;;;20.67;15.27;;;-1.50;1.00;;;;;;5053672;28;20893;-57
2022/03/03 02:24:26;;;;;;;22.90;14.50;;;-1.50;1.00;;;;;;5036921;28;20459;-58
2022/03/03 02:26:56;;;;;;;20.53;15.13;;;-1.50;1.00;;;;;;5036663;28;20491;-59
2022/03/03 02:29:25;;;;;;;21.53;15.70;;;-1.50;1.00;;;;;;5039565;28;20528;-59
2022/03/03 02:31:55;;;;;;;18.73;14.63;;;-1.40;1.00;;;;;;5040803;28;20532;-58
2022/03/03 02:34:23;;;;;;;23.67;14.67;;;-1.50;1.00;;;;;;5040234;28;20524;-59
2022/03/03 02:37:14;;;;;;;19.10;14.70;;;-1.50;1.00;;;;;;5040626;28;20981;-57
2022/03/03 02:39:41;;;;;;;20.70;14.67;;;-1.60;1.00;;;;;;5038504;28;20466;-57
2022/03/03 02:42:19;;;;;;;24.00;15.60;;;-1.60;1.00;;;;;;5040596;28;20513;-57
2022/03/03 02:44:46;;;;;;;25.30;17.30;;;-1.60;1.00;;;;;;5040336;28;20463;-59
2022/03/03 02:47:13;;;;;;;22.50;15.40;;;-1.60;1.00;;;;;;5040656;28;20460;-56
2022/03/03 02:49:49;;;;;;;23.30;15.57;;;-1.70;1.00;;;;;;5041007;28;20462;-56
2022/03/03 02:52:17;;;;;;;22.13;15.20;;;-1.70;1.00;;;;;;5039821;28;20550;-55
2022/03/03 02:54:47;;;;;;;20.00;15.17;;;-1.60;1.00;;;;;;5040477;28;20462;-55
2022/03/03 03:00:01;;;;;;;17.00;13.57;;;-1.60;1.00;;;;;;5040551;28;20903;-55
2022/03/03 03:02:33;;;;;;;22.50;15.30;;;-1.70;1.00;;;;;;5040084;28;20794;-57
2022/03/03 03:05:03;;;;;;;22.33;14.40;;;-1.70;1.00;;;;;;5040926;28;20467;-56
2022/03/03 03:07:35;;;;;;;25.20;14.80;;;-1.70;1.00;;;;;;5040116;28;20918;-55
2022/03/03 03:10:04;;;;;;;25.77;14.70;;;-1.80;1.00;;;;;;5040848;28;20463;-54
2022/03/03 03:12:33;;;;;;;20.07;14.60;;;-1.90;1.00;;;;;;5040005;28;20465;-58
2022/03/03 03:15:03;;;;;;;20.93;14.80;;;-1.80;1.00;;;;;;5040131;28;20506;-56
2022/03/03 03:17:47;;;;;;;22.23;15.10;;;-1.80;1.00;;;;;;5049648;28;20554;-55
2022/03/03 03:20:19;;;;;;;19.90;13.83;;;-1.90;1.00;;;;;;5080487;28;20457;-56
2022/03/03 03:22:51;;;;;;;19.57;14.07;;;-1.90;1.00;;;;;;5080491;28;20824;-54
2022/03/03 03:25:18;;;;;;;26.90;15.47;;;-1.90;1.00;;;;;;5079589;28;20493;-57
2022/03/03 03:27:45;;;;;;;22.27;14.87;;;-2.00;1.00;;;;;;5080039;28;20468;-54
2022/03/03 03:30:13;;;;;;;23.00;14.73;;;-1.90;1.00;;;;;;5080143;28;20438;-58
2022/03/03 03:32:49;;;;;;;23.13;14.90;;;-2.00;1.00;;;;;;5079936;28;20560;-58
2022/03/03 03:35:22;;;;;;;23.70;15.03;;;-1.90;1.00;;;;;;5079008;28;20491;-58
2022/03/03 03:37:55;;;;;;;25.03;15.00;;;-1.90;1.00;;;;;;5079393;28;20472;-58
2022/03/03 03:40:28;;;;;;;21.73;14.43;;;-2.10;1.00;;;;;;5078195;28;20514;-56
2022/03/03 03:42:55;;;;;;;19.50;14.93;;;-2.10;1.00;;;;;;5079521;28;20465;-57
2022/03/03 03:45:22;;;;;;;21.53;14.77;;;-2.10;1.00;;;;;;5059744;28;20490;-58
2022/03/03 03:47:54;;;;;;;18.73;14.07;;;-2.00;1.00;;;;;;5064215;28;20454;-58
2022/03/03 03:50:21;;;;;;;20.53;14.00;;;-2.00;1.00;;;;;;5079684;28;20468;-57
2022/03/03 03:52:54;;;;;;;19.07;13.77;;;-2.10;1.00;;;;;;5079255;28;20461;-56
2022/03/03 03:55:28;;;;;;;21.97;14.70;;;-2.10;1.00;;;;;;5079030;28;20461;-56
2022/03/03 03:58:00;;;;;;;21.80;14.80;;;-2.10;1.00;;;;;;5078692;28;20469;-60
2022/03/03 04:00:30;;;;;;;18.30;14.30;;;-2.20;1.00;;;;;;5078951;28;20472;-55
2022/03/03 04:02:59;;;;;;;20.47;14.37;;;-2.10;1.00;;;;;;5079001;28;20453;-55
2022/03/03 04:05:39;;;;;;;19.27;14.10;;;-2.20;1.00;;;;;;5078555;28;20520;-57
2022/03/03 04:08:09;;;;;;;23.80;14.73;;;-2.20;1.00;;;;;;5078772;28;20766;-55
2022/03/03 04:10:39;;;;;;;20.50;14.23;;;-2.20;1.00;;;;;;5078712;28;20461;-59
2022/03/03 04:13:07;;;;;;;23.00;14.80;;;-2.20;1.00;;;;;;5077930;28;20457;-55
2022/03/03 04:15:37;;;;;;;22.40;15.27;;;-2.10;1.00;;;;;;5078301;28;20496;-57
2022/03/03 04:18:07;;;;;;;21.90;14.87;;;-2.10;1.00;;;;;;5078156;28;20833;-57
2022/03/03 04:20:38;;;;;;;18.60;13.50;;;-2.10;1.00;;;;;;5078519;28;20964;-55
2022/03/03 04:23:11;;;;;;;19.20;14.20;;;-2.20;1.00;;;;;;5078878;28;20914;-56
2022/03/03 04:25:44;;;;;;;21.70;14.83;;;-2.20;1.00;;;;;;5078183;28;20844;-58
2022/03/03 04:28:11;;;;;;;19.83;13.53;;;-2.10;1.00;;;;;;5078434;28;20825;-58
2022/03/03 04:30:50;;;;;;;19.73;13.70;;;-2.20;1.00;;;;;;5078230;28;20473;-55
2022/03/03 04:33:23;;;;;;;20.30;15.17;;;-2.20;1.00;;;;;;5078506;28;20460;-56
2022/03/03 04:35:53;;;;;;;20.37;15.67;;;-2.20;1.00;;;;;;5078299;28;20453;-58
2022/03/03 04:38:22;;;;;;;21.80;14.63;;;-2.20;1.00;;;;;;5078471;28;20822;-57
2022/03/03 04:41:02;;;;;;;21.10;14.27;;;-2.30;1.00;;;;;;5078477;28;20472;-55
2022/03/03 04:43:32;;;;;;;18.30;13.83;;;-2.40;1.00;;;;;;5078189;28;20469;-56
2022/03/03 04:46:02;;;;;;;20.07;15.63;;;-2.40;1.00;;;;;;5077905;28;20607;-57
2022/03/03 04:48:38;;;;;;;23.83;14.93;;;-2.40;1.00;;;;;;5078054;28;20954;-54
2022/03/03 04:51:13;;;;;;;20.60;13.97;;;-2.40;1.00;;;;;;5076874;28;20465;-57
2022/03/03 04:53:44;;;;;;;22.77;14.90;;;-2.40;1.00;;;;;;5068273;28;20466;-57
2022/03/03 04:56:16;;;;;;;20.90;13.63;;;-2.50;1.00;;;;;;5065762;28;20463;-54
2022/03/03 04:58:44;;;;;;;19.53;13.73;;;-2.50;1.00;;;;;;5069066;28;20461;-55
2022/03/03 05:01:14;;;;;;;24.10;13.37;;;-2.50;1.00;;;;;;5070149;28;20473;-57
2022/03/03 05:03:43;;;;;;;20.00;15.50;;;-2.50;1.00;;;;;;5066821;28;20560;-52
2022/03/03 05:06:13;;;;;;;20.90;15.23;;;-2.50;1.00;;;;;;5068931;28;20958;-53
2022/03/03 05:08:41;;;;;;;21.07;14.37;;;-2.50;1.00;;;;;;5074253;28;20462;-57
2022/03/03 05:11:08;;;;;;;19.60;14.20;;;-2.50;1.00;;;;;;5066840;28;20568;-56
2022/03/03 05:13:39;;;;;;;20.77;14.23;;;-2.60;1.00;;;;;;5075051;28;20465;-54
2022/03/03 05:16:07;;;;;;;23.47;13.90;;;-2.60;1.00;;;;;;5077575;28;20802;-56
2022/03/03 05:18:34;;;;;;;21.90;15.70;;;-2.70;1.00;;;;;;5075544;28;20496;-53
2022/03/03 05:21:01;;;;;;;27.03;16.20;;;-2.70;1.00;;;;;;5077513;28;20472;-55
2022/03/03 05:23:31;;;;;;;20.23;15.30;;;-2.70;1.00;;;;;;5082720;28;20483;-60
2022/03/03 05:25:58;;;;;;;20.87;14.90;;;-2.70;1.00;;;;;;5098187;28;20582;-60
2022/03/03 05:28:27;;;;;;;22.50;15.77;;;-2.70;1.00;;;;;;5087213;28;20958;-60
2022/03/03 05:31:01;;;;;;;21.20;15.03;;;-2.80;1.00;;;;;;5076844;28;20481;-60
2022/03/03 05:33:32;;;;;;;21.70;15.50;;;-2.80;1.00;;;;;;5076413;28;20881;-58
2022/03/03 05:36:05;;;;;;;19.20;14.27;;;-2.80;1.00;;;;;;5077895;28;20769;-60
2022/03/03 05:38:34;;;;;;;22.43;15.20;;;-2.80;1.00;;;;;;5076609;28;20468;-55
2022/03/03 05:41:04;;;;;;;21.13;14.83;;;-2.80;1.00;;;;;;5077575;28;20465;-60
2022/03/03 05:43:33;;;;;;;20.53;14.13;;;-2.80;1.00;;;;;;5077614;28;20468;-60
2022/03/03 05:46:05;;;;;;;22.10;14.83;;;-2.80;1.00;;;;;;5077835;28;21004;-60
2022/03/03 05:48:32;;;;;;;22.27;15.50;;;-2.70;1.00;;;;;;5077477;28;20564;-60
2022/03/03 05:50:59;;;;;;;20.73;15.00;;;-2.80;1.00;;;;;;5077385;28;20461;-56
2022/03/03 05:53:27;;;;;;;22.60;15.90;;;-2.70;1.00;;;;;;5077539;28;20473;-59
2022/03/03 05:55:57;;;;;;;20.70;15.10;;;-2.30;99.70;;;;;;5077847;28;20822;-61
2022/03/03 05:58:32;;;;;;;23.30;16.07;;;-2.30;1.00;;;;;;5077274;28;20468;-55
2022/03/03 06:01:03;;;;;;;21.93;14.30;;;-2.30;1.00;;;;;;5076627;28;20469;-60
2022/03/03 06:03:31;;;;;;;23.93;14.97;;;-2.40;1.00;;;;;;5078393;28;20464;-59
2022/03/03 06:06:06;;;;;;;22.27;17.00;;;-2.40;1.00;;;;;;5081372;28;20465;-60
2022/03/03 06:08:47;;;;;;;24.70;17.10;;;-2.40;1.00;;;;;;5081401;28;20497;-59
2022/03/03 06:11:22;;;;;;;24.47;15.60;;;-2.40;1.00;;;;;;5081958;28;20518;-58
2022/03/03 06:14:03;;;;;;;26.47;16.40;;;-2.30;1.00;;;;;;5081895;28;20894;-56
2022/03/03 06:16:33;;;;;;;23.93;15.80;;;-2.40;1.00;;;;;;5082676;28;20818;-59
2022/03/03 06:19:10;;;;;;;23.67;17.10;;;-2.30;1.00;;;;;;5082034;28;20524;-57
2022/03/03 06:21:42;;;;;;;20.53;16.23;;;-2.30;1.00;;;;;;5062176;28;20515;-57
2022/03/03 06:24:16;;;;;;;20.93;15.73;;;-2.30;1.00;;;;;;5082590;28;20461;-59
2022/03/03 06:26:54;;;;;;;25.63;16.20;;;-2.30;1.00;;;;;;5081977;28;20929;-56
2022/03/03 06:29:21;;;;;;;28.10;17.27;;;-2.30;1.00;;;;;;5079797;28;20503;-59
2022/03/03 06:31:52;;;;;;;26.93;17.13;;;-2.30;1.00;;;;;;5082403;28;20491;-58
2022/03/03 06:34:20;;;;;;;40.20;26.37;;;-2.30;1.00;;;;;;5082016;28;20822;-57
2022/03/03 06:36:57;;;;;;;32.87;20.50;;;-2.30;1.00;;;;;;5081623;28;20961;-60
2022/03/03 06:39:26;;;;;;;121.80;58.23;;;-2.20;1.00;;;;;;5082177;28;20522;-58
2022/03/03 06:41:56;;;;;;;44.27;27.63;;;-2.20;1.00;;;;;;5081355;28;20473;-56
2022/03/03 06:44:31;;;;;;;33.93;20.60;;;-2.10;1.00;;;;;;5080792;28;20465;-58
2022/03/03 06:47:07;;;;;;;21.37;15.63;;;-2.10;1.00;;;;;;5080399;28;21023;-60
2022/03/03 06:49:45;;;;;;;28.63;16.20;;;-2.00;1.00;;;;;;5081635;28;20484;-58
2022/03/03 06:52:24;;;;;;;28.33;18.93;;;-1.90;1.00;;;;;;5081679;28;20464;-58
2022/03/03 06:54:54;;;;;;;38.63;23.73;;;-1.80;1.00;;;;;;5078863;28;20457;-56
2022/03/03 06:57:22;;;;;;;29.93;20.50;;;-1.70;1.00;;;;;;5081180;28;20770;-59
2022/03/03 06:59:51;;;;;;;29.60;18.50;;;-1.50;1.00;;;;;;5081606;28;20500;-60
2022/03/03 07:02:20;;;;;;;25.47;18.30;;;-1.40;1.00;;;;;;5081278;28;20464;-58
2022/03/03 07:04:49;;;;;;;23.57;16.47;;;-1.40;1.00;;;;;;5080370;28;20568;-61
2022/03/03 07:07:22;;;;;;;21.80;15.53;;;-1.30;1.00;;;;;;5081392;28;20492;-54
2022/03/03 07:09:51;;;;;;;23.47;16.30;;;-1.20;1.00;;;;;;5081058;28;20465;-55
2022/03/03 07:12:19;;;;;;;25.27;15.90;;;-1.10;1.00;;;;;;5080192;28;20879;-57
2022/03/03 07:14:46;;;;;;;22.67;15.93;;;-1.00;1.00;;;;;;5080153;28;20867;-56
2022/03/03 07:17:29;;;;;;;26.87;15.73;;;-1.00;1.00;;;;;;5080021;28;20462;-56
2022/03/03 07:20:07;;;;;;;21.23;15.37;;;-1.00;1.00;;;;;;5086310;28;20449;-56
2022/03/03 07:22:41;;;;;;;26.83;15.53;;;-0.80;1.00;;;;;;5080527;28;20879;-57
2022/03/03 07:25:14;;;;;;;26.10;15.90;;;-0.70;1.00;;;;;;5079607;28;20463;-55
2022/03/03 07:27:47;;;;;;;26.83;16.07;;;-0.40;1.00;;;;;;5080974;28;20790;-61
2022/03/03 07:30:20;;;;;;;22.13;15.90;;;-0.20;1.00;;;;;;5080425;28;20464;-59
2022/03/03 07:32:56;;;;;;;26.47;16.73;;;0.10;1.00;;;;;;5080279;28;20459;-58
2022/03/03 07:35:26;;;;;;;22.10;15.47;;;0.40;1.00;;;;;;5080341;28;20930;-57
2022/03/03 07:38:02;;;;;;;26.47;16.37;;;0.70;1.00;;;;;;5067737;28;20547;-55
2022/03/03 07:40:44;;;;;;;21.73;15.90;;;1.00;1.00;;;;;;5079683;28;20468;-59
2022/03/03 07:43:15;;;;;;;23.63;16.30;;;1.30;1.00;;;;;;5078981;28;20461;-57
2022/03/03 07:45:43;;;;;;;23.20;17.60;;;1.70;1.00;;;;;;5078444;28;20866;-56
2022/03/03 07:48:18;;;;;;;21.90;16.37;;;2.10;1.00;;;;;;5078411;28;20554;-58
2022/03/03 07:50:47;;;;;;;24.90;16.30;;;2.30;1.00;;;;;;5078729;28;20504;-59
2022/03/03 07:53:27;;;;;;;21.00;15.53;;;2.70;1.00;;;;;;5079194;28;20465;-58
2022/03/03 07:56:12;;;;;;;18.10;15.67;;;3.00;1.00;;;;;;5078652;28;20457;-58
2022/03/03 07:58:48;;;;;;;22.73;16.53;;;3.20;99.90;;;;;;5077445;28;20473;-60
2022/03/03 08:01:17;;;;;;;20.30;16.60;;;3.50;99.90;;;;;;5079363;28;20511;-60
2022/03/03 08:03:47;;;;;;;17.80;15.33;;;3.80;99.90;;;;;;5080002;28;20524;-60
2022/03/03 08:06:19;;;;;;;19.43;15.30;;;4.10;99.90;;;;;;5079272;28;20458;-60
2022/03/03 08:08:47;;;;;;;21.73;14.87;;;4.50;99.90;;;;;;5078496;28;20501;-59
2022/03/03 08:11:19;;;;;;;20.33;16.60;;;4.90;99.90;;;;;;5079516;28;20890;-59
2022/03/03 08:13:51;;;;;;;25.00;16.40;;;5.20;99.90;;;;;;5079086;28;20473;-60
2022/03/03 08:16:22;;;;;;;21.53;16.73;;;5.50;99.90;;;;;;5079065;28;20548;-60
2022/03/03 08:19:00;;;;;;;22.47;17.23;;;5.80;99.90;;;;;;5078555;28;20493;-59
2022/03/03 08:21:28;;;;;;;18.93;15.87;;;6.00;99.90;;;;;;5096106;28;20881;-57
2022/03/03 08:24:02;;;;;;;20.20;15.47;;;6.20;99.90;;;;;;5077959;28;20472;-59
2022/03/03 08:26:32;;;;;;;21.83;17.60;;;6.60;99.90;;;;;;5077466;28;20832;-58
2022/03/03 08:28:59;;;;;;;20.20;17.43;;;6.80;99.90;;;;;;5076634;28;20484;-58
2022/03/03 08:31:33;;;;;;;22.70;16.00;;;7.00;99.90;;;;;;5078488;28;20518;-59
2022/03/03 08:34:12;;;;;;;24.27;16.67;;;7.40;99.90;;;;;;5077100;28;20519;-59
2022/03/03 08:36:46;;;;;;;23.70;17.73;;;7.70;99.90;;;;;;5077961;28;20468;-59
2022/03/03 08:39:26;;;;;;;21.30;16.17;;;7.80;99.90;;;;;;5078356;28;20464;-58
2022/03/03 08:42:00;;;;;;;19.90;14.20;;;8.20;99.90;;;;;;5077879;28;20874;-59
2022/03/03 08:44:34;;;;;;;18.67;13.90;;;8.60;99.90;;;;;;5078091;28;20855;-56
2022/03/03 08:47:04;;;;;;;16.30;14.13;;;8.80;99.90;;;;;;5077388;28;20841;-59
2022/03/03 08:49:39;;;;;;;16.70;13.80;;;9.10;99.90;;;;;;5078025;28;20461;-59
2022/03/03 08:52:08;;;;;;;15.50;13.53;;;9.40;99.90;;;;;;5077794;28;20461;-59
2022/03/03 08:54:44;;;;;;;16.70;13.17;;;9.70;99.90;;;;;;5078026;28;20472;-58
2022/03/03 08:57:14;;;;;;;17.17;13.17;;;9.90;99.90;;;;;;5077448;28;20461;-59
2022/03/03 08:59:44;;;;;;;15.27;13.63;;;10.10;99.90;;;;;;5077680;28;20461;-57
2022/03/03 09:02:17;;;;;;;17.53;13.30;;;10.20;99.90;;;;;;5076210;28;20512;-58
2022/03/03 09:04:48;;;;;;;17.30;13.20;;;10.40;99.90;;;;;;5072543;28;20552;-59
2022/03/03 09:07:18;;;;;;;13.80;12.40;;;10.80;99.90;;;;;;5076347;28;20489;-59
2022/03/03 09:09:49;;;;;;;15.03;12.20;;;10.80;99.90;;;;;;5077212;28;20464;-57
2022/03/03 09:12:28;;;;;;;13.50;11.40;;;10.90;99.90;;;;;;5077270;28;20465;-56
2022/03/03 09:14:56;;;;;;;13.70;11.57;;;11.10;99.90;;;;;;5076969;28;20769;-58
2022/03/03 09:17:27;;;;;;;12.77;11.47;;;11.30;99.90;;;;;;5077272;28;20497;-57
2022/03/03 09:20:00;;;;;;;12.63;11.13;;;11.20;99.90;;;;;;5077569;28;20461;-56
2022/03/03 09:22:27;;;;;;;13.33;11.60;;;11.40;99.90;;;;;;5077131;28;20465;-57
2022/03/03 09:24:57;;;;;;;14.60;13.27;;;11.50;99.90;;;;;;5072599;28;20508;-58
2022/03/03 09:27:24;;;;;;;13.13;10.90;;;11.60;99.90;;;;;;5057048;28;20960;-57
2022/03/03 09:29:57;;;;;;;11.60;10.40;;;11.60;99.90;;;;;;5075103;28;20774;-58
2022/03/03 09:32:24;;;;;;;12.07;10.80;;;11.40;99.90;;;;;;5076309;28;20465;-59
2022/03/03 09:34:59;;;;;;;11.63;10.47;;;11.20;99.90;;;;;;5075893;28;20816;-57
2022/03/03 09:37:32;;;;;;;13.23;11.00;;;11.30;99.90;;;;;;5077064;28;20461;-53
2022/03/03 09:39:59;;;;;;;12.40;11.10;;;11.20;99.90;;;;;;5076876;28;20948;-58
2022/03/03 09:42:34;;;;;;;11.70;10.50;;;11.50;99.90;;;;;;5076721;28;20548;-55
2022/03/03 09:45:02;;;;;;;11.53;10.33;;;11.80;99.90;;;;;;5076553;28;20457;-57
2022/03/03 09:47:34;;;;;;;11.20;10.10;;;11.90;99.90;;;;;;5076971;28;20547;-55
2022/03/03 09:50:07;;;;;;;11.50;10.40;;;12.10;99.90;;;;;;5076412;28;20815;-57
2022/03/03 09:52:34;;;;;;;10.67;9.73;;;12.50;99.90;;;;;;5076598;28;20489;-56
2022/03/03 09:55:07;;;;;;;11.30;10.20;;;12.80;99.90;;;;;;5076416;28;20469;-56
2022/03/03 09:57:39;;;;;;;11.90;10.70;;;12.90;99.90;;;;;;5076861;28;20453;-58
2022/03/03 10:00:09;;;;;;;11.20;10.07;;;12.90;99.90;;;;;;5076712;28;20518;-57
2022/03/03 10:02:57;;;;;;;12.77;11.13;;;13.00;99.90;;;;;;5076388;28;20842;-57
2022/03/03 10:05:34;;;;;;;14.40;9.97;;;13.20;99.90;;;;;;5076414;28;20453;-54
2022/03/03 10:08:02;;;;;;;10.40;9.43;;;13.30;99.90;;;;;;5076858;28;20495;-58
2022/03/03 10:10:31;;;;;;;10.63;9.53;;;13.20;99.90;;;;;;5076330;28;20465;-56
2022/03/03 10:12:59;;;;;;;11.83;10.73;;;13.40;99.90;;;;;;5076497;28;20468;-58
2022/03/03 10:15:40;;;;;;;10.87;9.77;;;13.30;99.90;;;;;;5076263;28;20878;-55
2022/03/03 10:18:14;;;;;;;11.37;10.27;;;13.80;99.90;;;;;;5073502;28;20489;-55
2022/03/03 10:20:53;;;;;;;10.97;9.90;;;13.90;99.90;;;;;;5076118;28;20489;-59
2022/03/03 10:23:24;;;;;;;10.47;9.40;;;13.80;99.90;;;;;;5077064;28;20758;-59
2022/03/03 10:25:53;;;;;;;10.43;9.43;;;13.70;99.90;;;;;;5075986;28;20462;-57
2022/03/03 10:28:24;;;;;;;10.50;9.50;;;13.90;99.90;;;;;;5076427;28;20794;-57
2022/03/03 10:31:07;;;;;;;10.27;9.27;;;13.80;99.90;;;;;;5076086;28;20940;-59
2022/03/03 10:33:42;;;;;;;11.10;10.10;;;13.90;99.90;;;;;;5076536;28;20457;-57
2022/03/03 10:36:16;;;;;;;10.67;9.63;;;13.90;99.90;;;;;;5075854;28;20539;-57
2022/03/03 10:38:52;;;;;;;10.10;9.13;;;14.10;99.90;;;;;;5075387;28;20456;-58
2022/03/03 10:41:36;;;;;;;10.50;9.50;;;14.40;99.90;;;;;;5078091;28;20452;-58
2022/03/03 10:44:08;;;;;;;9.80;8.90;;;14.20;99.90;;;;;;5076464;28;20801;-59
2022/03/03 10:46:41;;;;;;;9.50;8.60;;;14.30;99.90;;;;;;5075664;28;20515;-59
2022/03/03 10:49:21;;;;;;;10.07;9.10;;;14.20;99.90;;;;;;5076905;28;20493;-59
2022/03/03 10:51:50;;;;;;;12.13;9.17;;;14.30;99.90;;;;;;5079958;28;20465;-59
2022/03/03 10:54:18;;;;;;;8.93;8.13;;;14.30;99.90;;;;;;5080116;28;20530;-57
2022/03/03 10:56:50;;;;;;;10.20;9.17;;;14.50;99.90;;;;;;5079250;28;20461;-59
2022/03/03 10:59:24;;;;;;;10.23;9.33;;;14.60;99.90;;;;;;5080104;28;20464;-58
2022/03/03 11:01:51;;;;;;;10.27;9.27;;;14.70;99.90;;;;;;5079601;28;20465;-57
2022/03/03 11:04:36;;;;;;;10.23;9.23;;;15.00;99.90;;;;;;5079242;28;20475;-58
2022/03/03 11:07:15;;;;;;;8.07;7.37;;;15.30;99.90;;;;;;5079133;28;20472;-59
2022/03/03 11:09:48;;;;;;;8.57;7.87;;;15.40;99.90;;;;;;5080208;28;20486;-57
2022/03/03 11:12:19;;;;;;;11.20;10.20;;;15.40;99.90;;;;;;5079642;28;20472;-58
2022/03/03 11:14:47;;;;;;;11.30;10.20;;;15.50;99.90;;;;;;5079826;28;20465;-58
2022/03/03 11:17:15;;;;;;;10.23;9.33;;;15.70;99.90;;;;;;5078909;28;20465;-59
2022/03/03 11:19:46;;;;;;;11.27;10.07;;;15.70;99.90;;;;;;5079523;28;20929;-59
2022/03/03 11:22:19;;;;;;;9.83;9.03;;;15.90;99.90;;;;;;5078697;28;20469;-59
2022/03/03 11:24:50;;;;;;;10.80;9.80;;;15.90;99.90;;;;;;5079260;28;20469;-58
2022/03/03 11:27:33;;;;;;;9.97;9.17;;;16.10;99.90;;;;;;5078899;28;20462;-59
2022/03/03 11:30:19;;;;;;;11.30;10.13;;;15.90;99.90;;;;;;5079862;28;20548;-58
2022/03/03 11:33:07;;;;;;;10.60;9.47;;;16.20;99.90;;;;;;5078280;28;20461;-57
2022/03/03 11:35:49;;;;;;;10.47;9.07;;;16.60;99.90;;;;;;5079166;28;20468;-57
2022/03/03 11:38:27;;;;;;;10.03;9.20;;;16.90;99.90;;;;;;5078141;28;20564;-60
2022/03/03 11:40:56;;;;;;;10.20;9.20;;;16.70;99.90;;;;;;5079377;28;20493;-62
2022/03/03 11:43:24;;;;;;;10.57;9.67;;;16.60;99.90;;;;;;5078815;28;20468;-61
2022/03/03 11:46:02;;;;;;;11.17;10.07;;;16.40;99.90;;;;;;5079144;28;20465;-61
2022/03/03 11:48:40;;;;;;;9.43;8.53;;;16.70;99.90;;;;;;5078107;28;20485;-61
2022/03/03 11:51:33;;;;;;;11.13;9.20;;;16.80;99.90;;;;;;5078442;28;20464;-61
2022/03/03 11:54:14;;;;;;;9.70;8.90;;;16.70;99.90;;;;;;5078658;28;20476;-60
2022/03/03 11:57:15;;;;;;;9.93;9.13;;;16.70;99.90;;;;;;5078799;28;20556;-61
2022/03/03 11:59:59;;;;;;;9.90;8.90;;;17.00;99.90;;;;;;5078205;28;20461;-61
2022/03/03 12:02:40;;;;;;;9.80;9.00;;;16.90;99.90;;;;;;5077695;28;20488;-61
2022/03/03 12:05:36;;;;;;;9.43;8.63;;;17.00;99.90;;;;;;5078581;28;20885;-61
2022/03/03 12:08:38;;;;;;;8.57;7.77;;;17.00;99.90;;;;;;5076878;28;20493;-61
2022/03/03 12:11:14;;;;;;;9.90;9.10;;;16.70;99.90;;;;;;5077442;28;20900;-61
2022/03/03 12:13:50;;;;;;;9.77;8.80;;;17.10;99.90;;;;;;5078543;28;20491;-61
2022/03/03 12:16:26;;;;;;;8.53;7.83;;;17.60;99.90;;;;;;5074643;28;20755;-62
2022/03/03 12:19:13;;;;;;;10.23;9.23;;;17.70;99.90;;;;;;5077903;28;20534;-62
2022/03/03 12:21:43;;;;;;;9.63;8.63;;;17.70;99.90;;;;;;5058892;28;20763;-62
2022/03/03 12:24:37;;;;;;;9.23;8.23;;;17.80;99.90;;;;;;5064188;28;20457;-61
2022/03/03 12:27:15;;;;;;;13.13;10.10;;;17.90;99.90;;;;;;5078236;28;20544;-61
2022/03/03 12:29:58;;;;;;;9.77;8.97;;;17.50;99.90;;;;;;5078230;28;20492;-59
2022/03/03 12:32:44;;;;;;;10.43;9.53;;;17.30;99.90;;;;;;5077768;28;20465;-58
2022/03/03 12:35:29;;;;;;;10.63;9.63;;;17.10;99.90;;;;;;5077434;28;20469;-60
2022/03/03 12:38:05;;;;;;;10.63;9.83;;;17.00;99.90;;;;;;5077610;28;20465;-58
2022/03/03 12:40:33;;;;;;;12.20;11.10;;;17.10;99.90;;;;;;5077630;28;20476;-59
2022/03/03 12:43:04;;;;;;;11.27;10.30;;;17.30;99.90;;;;;;5077793;28;20552;-60
2022/03/03 12:45:37;;;;;;;12.33;10.30;;;17.00;99.90;;;;;;5077255;28;20461;-60
2022/03/03 12:48:07;;;;;;;12.50;11.47;;;17.00;99.90;;;;;;5076772;28;20872;-60
2022/03/03 12:50:41;;;;;;;12.07;10.97;;;16.60;99.90;;;;;;5077109;28;20469;-58
2022/03/03 12:53:11;;;;;;;13.13;10.40;;;16.60;99.90;;;;;;5077070;28;20912;-59
2022/03/03 12:55:43;;;;;;;10.93;9.83;;;16.30;99.90;;;;;;5077597;28;20893;-60
2022/03/03 12:58:13;;;;;;;10.30;9.37;;;16.00;99.90;;;;;;5077809;28;20813;-59
2022/03/03 13:00:47;;;;;;;10.17;9.10;;;15.40;99.90;;;;;;5076516;28;20519;-58
2022/03/03 13:03:18;;;;;;;10.17;9.27;;;15.30;99.90;;;;;;5077442;28;20472;-59
2022/03/03 13:05:47;;;;;;;9.97;9.07;;;15.70;99.90;;;;;;5077545;28;20518;-59
2022/03/03 13:08:28;;;;;;;11.30;10.20;;;15.60;99.90;;;;;;5077479;28;21023;-60